Terminal Aerodrome Forecast
Issued by NWS Jackson, MS

Home | Current Version | Previous Version | Text Only | Print | Product List | Glossary On
Versions: 1 2 3 4 5 6 7 8 9 10 11 12 13 14 15 16 17 18 19 20
464
FTUS44 KJAN 231907 AAA
TAFGLH
TAF AMD
KGLH 231907Z 2319/2418 28006KT P6SM OVC019
     FM232030 32009KT P6SM SCT025
     FM240000 35003KT P6SM SKC
     FM241500 15007KT P6SM BKN250=

USA.gov is the U.S. government's official web portal to all federal, state and local government web resources and services.